KLOL/LOL METAR and TAF weather

Enter ICAO airport designator
Station Type Date Time Source
KLOL METAR 2022/01/18 05:53 UTC NOAA

KLOL 180553Z AUTO 07003KT 10SM CLR M03/M04 A3006 RMK AO2 SLP207 T10281044 10061 21033 53004


Station Type Date Time Source
KLOL Decoded METAR 2022/01/18 05:53 UTC NOAA

LOVELOCK DERBY FIELD, NV, United States (KLOL) 40-04N 118-34W 1189M
Jan 18, 2022 - 12:53 AM EST / 2022.01.18 0553 UTC
Wind: from the ENE (070 degrees) at 3 MPH (3 KT):0
Visibility: 10 mile(s):0
Sky conditions: clear
Temperature: 27.0 F (-2.8 C)
Dew Point: 24.1 F (-4.4 C)
Relative Humidity: 88%
Pressure (altimeter): 30.06 in. Hg (1017 hPa)
Pressure tendency: 0.01 inches (0.4 hPa) higher than three hours ago
ob: KLOL 180553Z AUTO 07003KT 10SM CLR M03/M04 A3006 RMK AO2 SLP207 T10281044 10061 21033 53004
cycle: 6

Station Type Date Time Source
KLOL TAF 2010/01/05 05:22 UTC NOAA

TAF KLOL 050522Z 0506/0606 00000KT 1/4SM FZFG VV001
FM052000 VRB03KT 3SM BR OVC002
AMD NOT SKED

Example: see airport list